createdAt,value
2023-04-18T00:02:23.251Z,99511.03
2023-04-18T00:04:54.597Z,99510.19
2023-04-18T00:07:25.598Z,99508.24
2023-04-18T00:09:56.309Z,99507.38
2023-04-18T00:12:27.147Z,99503.68
2023-04-18T00:14:58.748Z,99505.98
2023-04-18T00:17:30.578Z,99505.39
2023-04-18T00:20:02.638Z,99502.81
2023-04-18T00:22:33.993Z,99503.82
2023-04-18T00:25:04.779Z,99502.64
2023-04-18T00:27:35.869Z,99501.35
2023-04-18T00:30:08.041Z,99502.59
2023-04-18T00:32:39.180Z,99502.55
2023-04-18T00:35:11.550Z,99499.14
2023-04-18T00:37:42.483Z,99499.38
2023-04-18T00:40:14.842Z,99505.08
2023-04-18T00:42:45.745Z,99503.69
2023-04-18T00:45:16.462Z,99500.14
2023-04-18T00:47:47.082Z,99500.60
2023-04-18T00:50:18.245Z,99497.67
2023-04-18T00:52:52.355Z,99500.46
2023-04-18T00:55:23.669Z,99499.29
2023-04-18T00:57:54.547Z,99497.95
2023-04-18T01:00:25.702Z,99498.13
2023-04-18T01:02:56.857Z,99498.61
2023-04-18T01:05:29.917Z,99497.48
2023-04-18T01:08:01.475Z,99499.13
2023-04-18T01:10:33.486Z,99500.27
2023-04-18T01:13:14.938Z,99498.20
2023-04-18T01:15:47.538Z,99495.06
2023-04-18T01:18:20.796Z,99497.80
2023-04-18T01:20:52.874Z,99497.76
2023-04-18T01:23:23.861Z,99495.41
2023-04-18T01:25:54.756Z,99493.48
2023-04-18T01:28:27.832Z,99496.63
2023-04-18T01:30:58.898Z,99496.70
2023-04-18T01:33:29.652Z,99497.71
2023-04-18T01:36:00.328Z,99498.45
2023-04-18T01:38:33.229Z,99498.39
2023-04-18T01:41:03.977Z,99498.27
2023-04-18T01:43:34.962Z,99495.52
2023-04-18T01:46:05.972Z,99493.01
2023-04-18T01:48:37.487Z,99495.88
2023-04-18T01:51:08.703Z,99492.96
2023-04-18T01:53:39.573Z,99489.60
2023-04-18T01:56:10.602Z,99490.61
2023-04-18T01:58:42.706Z,99491.40
2023-04-18T02:01:13.378Z,99489.27
2023-04-18T02:03:44.891Z,99489.61
2023-04-18T02:06:16.004Z,99488.98
2023-04-18T02:08:46.672Z,99487.67
2023-04-18T02:11:17.580Z,99487.35
2023-04-18T02:13:48.743Z,99490.73
2023-04-18T02:16:19.701Z,99489.61
2023-04-18T02:18:52.512Z,99488.95
2023-04-18T02:21:23.268Z,99489.48
2023-04-18T02:23:53.902Z,99489.20
2023-04-18T02:26:25.385Z,99491.77
2023-04-18T02:28:56.500Z,99491.63
2023-04-18T02:31:27.693Z,99491.58
2023-04-18T02:33:59.011Z,99492.02
2023-04-18T02:36:29.779Z,99491.73
2023-04-18T02:39:00.679Z,99492.98
2023-04-18T02:41:31.299Z,99496.52
2023-04-18T02:44:02.016Z,99499.73
2023-04-18T02:46:32.826Z,99501.48
2023-04-18T02:49:03.758Z,99499.68
2023-04-18T02:51:34.436Z,99500.65
2023-04-18T02:54:05.506Z,99500.14
2023-04-18T02:56:39.941Z,99497.73
2023-04-18T02:59:11.160Z,99500.65
2023-04-18T03:01:41.992Z,99504.54
2023-04-18T03:04:13.169Z,99506.77
2023-04-18T03:06:44.151Z,99505.48
2023-04-18T03:09:15.009Z,99504.58
2023-04-18T03:11:46.695Z,99508.91
2023-04-18T03:14:17.600Z,99505.31
2023-04-18T03:16:48.685Z,99505.53
2023-04-18T03:19:19.529Z,99506.20
2023-04-18T03:21:50.277Z,99501.83
2023-04-18T03:24:23.837Z,99502.83
2023-04-18T03:26:55.704Z,99504.02
2023-04-18T03:29:26.733Z,99501.65
2023-04-18T03:31:57.673Z,99501.88
2023-04-18T03:34:28.431Z,99502.55
2023-04-18T03:36:59.115Z,99506.85
2023-04-18T03:39:29.771Z,99506.10
2023-04-18T03:42:01.661Z,99510.67
2023-04-18T03:44:32.306Z,99513.31
2023-04-18T03:47:03.643Z,99513.42
2023-04-18T03:49:34.487Z,99511.34
2023-04-18T03:52:07.085Z,99513.86
2023-04-18T03:54:37.901Z,99512.69
2023-04-18T03:57:08.648Z,99508.75
2023-04-18T03:59:39.362Z,99505.42
2023-04-18T04:02:10.304Z,99509.81
2023-04-18T04:04:41.249Z,99511.65
2023-04-18T04:07:12.619Z,99508.70
2023-04-18T04:09:43.351Z,99513.70
2023-04-18T04:12:14.091Z,99513.86
2023-04-18T04:14:44.773Z,99516.22
2023-04-18T04:17:16.080Z,99513.20
2023-04-18T04:19:46.967Z,99520.90
2023-04-18T04:22:17.978Z,99524.67
2023-04-18T04:24:48.942Z,99529.77
2023-04-18T04:27:20.615Z,99527.41
2023-04-18T04:29:52.359Z,99531.36
2023-04-18T04:32:23.126Z,99530.28
2023-04-18T04:34:54.118Z,99533.72
2023-04-18T04:37:25.165Z,99531.02
2023-04-18T04:39:57.042Z,99534.73
2023-04-18T04:42:28.705Z,99538.73
2023-04-18T04:44:59.403Z,99536.83
2023-04-18T04:47:30.205Z,99540.54
2023-04-18T04:50:00.963Z,99537.64
2023-04-18T04:52:32.775Z,99537.82
2023-04-18T04:55:03.549Z,99540.35
2023-04-18T04:57:34.346Z,99541.57
2023-04-18T05:00:07.364Z,99538.54
2023-04-18T05:02:38.424Z,99541.46
2023-04-18T05:05:10.538Z,99537.05
2023-04-18T05:07:41.359Z,99540.94
2023-04-18T05:10:13.174Z,99541.00
2023-04-18T05:12:43.856Z,99538.16
2023-04-18T05:15:16.148Z,99539.07
2023-04-18T05:17:47.030Z,99543.33
2023-04-18T05:20:17.832Z,99541.43
2023-04-18T05:22:48.945Z,99543.75
2023-04-18T05:25:21.112Z,99543.80
2023-04-18T05:27:53.455Z,99546.45
2023-04-18T05:30:26.209Z,99550.23
2023-04-18T05:32:57.613Z,99552.95
2023-04-18T05:35:28.689Z,99554.30
2023-04-18T05:38:00.229Z,99555.20
2023-04-18T05:40:34.075Z,99557.84
2023-04-18T05:43:04.773Z,99557.86
2023-04-18T05:45:35.462Z,99560.50
2023-04-18T05:48:06.799Z,99562.48
2023-04-18T05:50:37.849Z,99561.89
2023-04-18T05:53:08.873Z,99560.26
2023-04-18T05:55:41.115Z,99561.50
2023-04-18T05:58:14.442Z,99560.33
2023-04-18T06:00:46.137Z,99560.65
2023-04-18T06:03:17.331Z,99563.99
2023-04-18T06:05:48.502Z,99569.23
2023-04-18T06:08:19.587Z,99568.05
2023-04-18T06:10:50.407Z,99566.27
2023-04-18T06:13:21.063Z,99567.70
2023-04-18T06:15:52.132Z,99564.12
2023-04-18T06:18:23.235Z,99563.39
2023-04-18T06:20:54.493Z,99568.79
2023-04-18T06:23:25.432Z,99565.77
2023-04-18T06:25:56.900Z,99565.98
2023-04-18T06:28:27.801Z,99570.20
2023-04-18T06:30:58.892Z,99569.46
2023-04-18T06:33:30.226Z,99574.80
2023-04-18T06:36:01.380Z,99571.50
2023-04-18T06:38:34.158Z,99570.42
2023-04-18T06:41:05.645Z,99571.05
2023-04-18T06:43:36.894Z,99571.35
2023-04-18T06:46:08.155Z,99576.06
2023-04-18T06:48:39.276Z,99577.36
2023-04-18T06:51:10.181Z,99577.44
2023-04-18T06:53:41.049Z,99579.30
2023-04-18T06:56:11.988Z,99580.60
2023-04-18T06:58:42.884Z,99579.98
2023-04-18T07:01:13.935Z,99576.55
2023-04-18T07:03:45.044Z,99581.04
2023-04-18T07:06:16.165Z,99584.86
2023-04-18T07:08:47.001Z,99585.94
2023-04-18T07:11:18.711Z,99585.04
2023-04-18T07:13:50.492Z,99585.33
2023-04-18T07:16:21.390Z,99590.61
2023-04-18T07:18:52.787Z,99591.05
2023-04-18T07:21:23.988Z,99592.14
2023-04-18T07:23:54.862Z,99594.16
2023-04-18T07:26:27.704Z,99594.39
2023-04-18T07:28:58.618Z,99595.13
2023-04-18T07:31:31.328Z,99594.95
2023-04-18T07:34:02.260Z,99597.54
2023-04-18T07:36:33.511Z,99595.57
2023-04-18T07:39:04.663Z,99598.66
2023-04-18T07:41:36.343Z,99601.80
2023-04-18T07:44:07.389Z,99596.77
2023-04-18T07:46:38.360Z,99598.11
2023-04-18T07:49:09.247Z,99596.89
2023-04-18T07:51:40.183Z,99594.94
2023-04-18T07:54:11.854Z,99588.09
2023-04-18T07:56:42.902Z,99590.17
2023-04-18T07:59:13.987Z,99595.73
2023-04-18T08:01:45.302Z,99593.25
2023-04-18T08:04:16.373Z,99596.16
2023-04-18T08:06:47.475Z,99599.70
2023-04-18T08:09:20.570Z,99599.51
2023-04-18T08:11:51.526Z,99601.59
2023-04-18T08:14:22.375Z,99603.38
2023-04-18T08:16:53.063Z,99603.50
2023-04-18T08:19:24.476Z,99604.61
2023-04-18T08:21:55.342Z,99603.77
2023-04-18T08:24:26.380Z,99599.73
2023-04-18T08:26:57.529Z,99601.48
2023-04-18T08:29:28.516Z,99595.74
2023-04-18T08:31:59.527Z,99599.30
2023-04-18T08:34:33.908Z,99601.65
2023-04-18T08:37:05.894Z,99604.23
2023-04-18T08:39:36.816Z,99604.73
2023-04-18T08:42:09.802Z,99601.60
2023-04-18T08:44:40.784Z,99600.92
2023-04-18T08:47:12.798Z,99602.34
2023-04-18T08:49:45.685Z,99606.45
2023-04-18T08:52:17.982Z,99608.24
2023-04-18T08:54:49.309Z,99609.21
2023-04-18T08:57:26.906Z,99609.77
2023-04-18T09:00:00.824Z,99614.88
2023-04-18T09:02:42.780Z,99611.98
2023-04-18T09:05:19.580Z,99609.06
2023-04-18T09:07:53.043Z,99609.02
2023-04-18T09:10:32.727Z,99611.79
2023-04-18T09:13:04.520Z,99613.99
2023-04-18T09:15:35.751Z,99616.56
2023-04-18T09:18:12.572Z,99616.06
2023-04-18T09:20:44.744Z,99616.68
2023-04-18T09:23:24.713Z,99615.29
2023-04-18T09:25:57.287Z,99615.30
2023-04-18T09:28:30.486Z,99615.06
2023-04-18T09:31:09.399Z,99610.79
2023-04-18T09:33:43.155Z,99607.50
2023-04-18T09:36:22.144Z,99604.90
2023-04-18T09:38:56.671Z,99606.26
2023-04-18T09:41:30.582Z,99606.83
2023-04-18T09:44:14.973Z,99604.95
2023-04-18T09:46:47.539Z,99603.50
2023-04-18T09:49:19.001Z,99604.74
2023-04-18T09:51:51.685Z,99603.05
2023-04-18T09:54:24.264Z,99604.91
2023-04-18T09:56:56.449Z,99599.08
2023-04-18T09:59:43.889Z,99600.92
2023-04-18T10:02:21.259Z,99599.98
2023-04-18T10:04:55.544Z,99604.19
2023-04-18T10:07:28.649Z,99601.61
2023-04-18T10:09:59.503Z,99600.31
2023-04-18T10:12:30.653Z,99592.79
2023-04-18T10:15:02.512Z,99590.05
2023-04-18T10:17:56.231Z,99586.29
2023-04-18T10:20:36.076Z,99587.19
2023-04-18T10:23:36.633Z,99586.52
2023-04-18T10:26:08.336Z,99587.80
2023-04-18T10:28:54.908Z,99586.17
2023-04-18T10:31:27.169Z,99587.75
2023-04-18T10:36:34.394Z,99591.95
2023-04-18T10:39:22.511Z,99589.64
2023-04-18T10:41:53.960Z,99586.83
2023-04-18T10:44:25.130Z,99588.23
2023-04-18T10:47:23.493Z,99590.19
2023-04-18T10:50:06.782Z,99581.94
2023-04-18T10:52:40.434Z,99587.38
2023-04-18T10:55:18.926Z,99588.22
2023-04-18T10:57:51.598Z,99585.07
2023-04-18T11:00:24.833Z,99584.70
2023-04-18T11:02:58.031Z,99578.97
2023-04-18T11:05:30.195Z,99576.17
2023-04-18T11:08:01.159Z,99575.25
2023-04-18T11:10:32.558Z,99568.56
2023-04-18T11:13:06.974Z,99571.36
2023-04-18T11:15:42.089Z,99572.09
2023-04-18T11:18:12.996Z,99575.63
2023-04-18T11:20:50.924Z,99573.84
2023-04-18T11:23:25.189Z,99578.73
2023-04-18T11:25:58.584Z,99576.16
2023-04-18T11:28:29.876Z,99577.16
2023-04-18T11:31:03.078Z,99577.32
2023-04-18T11:33:34.159Z,99575.64
2023-04-18T11:36:06.130Z,99577.49
2023-04-18T11:38:37.075Z,99580.46
2023-04-18T11:41:12.886Z,99578.73
2023-04-18T11:43:45.645Z,99579.33
2023-04-18T11:46:16.591Z,99585.45
2023-04-18T11:48:47.952Z,99578.98
2023-04-18T11:51:38.423Z,99578.52
2023-04-18T11:54:29.491Z,99576.56
2023-04-18T11:57:00.375Z,99577.11
2023-04-18T11:59:31.718Z,99579.74
2023-04-18T12:02:15.739Z,99573.39
2023-04-18T12:04:56.389Z,99578.60
2023-04-18T12:07:37.215Z,99575.41
2023-04-18T12:10:10.472Z,99581.31
2023-04-18T12:12:50.946Z,99586.09
2023-04-18T12:15:25.414Z,99582.98
2023-04-18T12:18:00.777Z,99580.90
2023-04-18T12:20:38.351Z,99577.91
2023-04-18T12:23:10.038Z,99578.54
2023-04-18T12:25:41.466Z,99583.65
2023-04-18T12:28:20.048Z,99579.83
2023-04-18T12:30:51.037Z,99581.64
2023-04-18T12:33:21.993Z,99579.80
2023-04-18T12:35:53.549Z,99586.77
2023-04-18T12:38:25.099Z,99584.58
2023-04-18T12:40:56.057Z,99582.55
2023-04-18T12:43:26.896Z,99577.61
2023-04-18T12:45:59.538Z,99580.86
2023-04-18T12:48:30.809Z,99577.73
2023-04-18T12:51:01.810Z,99577.94
2023-04-18T12:53:33.028Z,99575.82
2023-04-18T12:56:03.937Z,99582.52
2023-04-18T12:58:35.118Z,99583.35
2023-04-18T13:01:06.881Z,99580.36
2023-04-18T13:03:39.023Z,99577.34
2023-04-18T13:06:10.400Z,99576.83
2023-04-18T13:08:41.450Z,99578.63
2023-04-18T13:11:12.731Z,99580.87
2023-04-18T13:13:43.520Z,99575.54
2023-04-18T13:16:14.341Z,99580.08
2023-04-18T13:18:45.519Z,99581.98
2023-04-18T13:21:16.712Z,99582.50
2023-04-18T13:23:47.612Z,99586.27
2023-04-18T13:26:18.668Z,99585.71
2023-04-18T13:28:50.315Z,99589.04
2023-04-18T13:31:21.372Z,99590.51
2023-04-18T13:33:52.851Z,99588.61
2023-04-18T13:36:24.382Z,99584.18
2023-04-18T13:38:56.139Z,99585.53
2023-04-18T13:41:27.581Z,99585.97
2023-04-18T13:43:58.679Z,99584.96
2023-04-18T13:46:29.822Z,99583.55
2023-04-18T13:49:00.916Z,99576.19
2023-04-18T13:51:31.793Z,99570.70
2023-04-18T13:54:02.605Z,99571.59
2023-04-18T13:56:34.211Z,99569.95
2023-04-18T13:59:05.139Z,99573.15
2023-04-18T14:01:36.164Z,99571.52
2023-04-18T14:04:07.308Z,99577.08
2023-04-18T14:06:38.526Z,99575.02
2023-04-18T14:09:09.619Z,99576.73
2023-04-18T14:11:40.900Z,99580.80
2023-04-18T14:14:11.684Z,99583.09
2023-04-18T14:16:42.666Z,99579.23
2023-04-18T14:19:14.064Z,99580.41
2023-04-18T14:21:45.211Z,99580.31
2023-04-18T14:24:16.488Z,99576.50
2023-04-18T14:26:48.084Z,99582.38
2023-04-18T14:29:19.297Z,99584.30
2023-04-18T14:31:50.353Z,99576.11
2023-04-18T14:34:21.410Z,99582.00
2023-04-18T14:36:52.262Z,99581.77
2023-04-18T14:39:23.418Z,99582.38
2023-04-18T14:41:54.970Z,99586.68
2023-04-18T14:44:26.483Z,99583.89
2023-04-18T14:46:57.673Z,99586.58
2023-04-18T14:49:28.993Z,99582.35
2023-04-18T14:51:59.888Z,99581.42
2023-04-18T14:54:32.665Z,99580.88
2023-04-18T14:57:03.707Z,99582.66
2023-04-18T14:59:34.890Z,99587.27
2023-04-18T15:02:06.128Z,99587.10
2023-04-18T15:04:37.784Z,99586.70
2023-04-18T15:07:08.839Z,99586.55
2023-04-18T15:09:40.922Z,99586.98
2023-04-18T15:12:12.198Z,99584.71
2023-04-18T15:14:43.720Z,99586.61
2023-04-18T15:17:14.967Z,99586.33
2023-04-18T15:19:45.879Z,99591.21
2023-04-18T15:22:16.851Z,99591.77
2023-04-18T15:24:48.215Z,99593.12
2023-04-18T15:27:18.989Z,99596.70
2023-04-18T15:29:49.909Z,99596.08
2023-04-18T15:32:20.855Z,99603.77
2023-04-18T15:34:51.894Z,99602.05
2023-04-18T15:37:23.751Z,99607.27
2023-04-18T15:39:54.493Z,99609.68
2023-04-18T15:42:26.017Z,99606.09
2023-04-18T15:44:56.993Z,99608.58
2023-04-18T15:47:27.779Z,99611.98
2023-04-18T15:49:58.699Z,99614.63
2023-04-18T15:52:29.865Z,99609.80
2023-04-18T15:55:01.129Z,99617.15
2023-04-18T15:57:32.521Z,99622.66
2023-04-18T16:00:05.396Z,99626.14
2023-04-18T16:02:36.353Z,99626.13
2023-04-18T16:05:08.787Z,99631.63
2023-04-18T16:07:40.406Z,99633.80
2023-04-18T16:10:13.095Z,99631.59
2023-04-18T16:12:44.099Z,99634.04
2023-04-18T16:15:16.278Z,99630.66
2023-04-18T16:17:47.679Z,99629.67
2023-04-18T16:20:19.250Z,99632.47
2023-04-18T16:22:50.676Z,99630.88
2023-04-18T16:25:21.751Z,99628.05
2023-04-18T16:27:53.346Z,99628.65
2023-04-18T16:30:24.809Z,99633.24
2023-04-18T16:32:56.587Z,99631.78
2023-04-18T16:35:28.407Z,99633.85
2023-04-18T16:37:59.420Z,99631.94
2023-04-18T16:40:32.074Z,99635.30
2023-04-18T16:43:03.508Z,99638.20
2023-04-18T16:45:36.085Z,99637.67
2023-04-18T16:48:08.231Z,99638.79
2023-04-18T16:50:39.642Z,99640.16
2023-04-18T16:53:10.563Z,99640.02
2023-04-18T16:55:42.012Z,99644.51
2023-04-18T16:58:13.053Z,99644.52
2023-04-18T17:00:44.906Z,99639.91
2023-04-18T17:03:16.522Z,99640.52
2023-04-18T17:05:47.860Z,99640.55
2023-04-18T17:08:19.597Z,99641.16
2023-04-18T17:10:53.960Z,99643.11
2023-04-18T17:13:27.142Z,99640.52
2023-04-18T17:15:58.942Z,99645.78
2023-04-18T17:18:30.721Z,99647.09
2023-04-18T17:21:01.897Z,99649.45
2023-04-18T17:23:33.245Z,99650.43
2023-04-18T17:26:05.089Z,99653.05
2023-04-18T17:28:36.133Z,99662.39
2023-04-18T17:31:07.863Z,99656.45
2023-04-18T17:33:38.916Z,99658.05
2023-04-18T17:36:11.225Z,99661.36
2023-04-18T17:38:48.846Z,99664.23
2023-04-18T17:41:23.610Z,99665.44
2023-04-18T17:43:55.018Z,99664.58
2023-04-18T17:46:26.916Z,99670.08
2023-04-18T17:48:58.255Z,99668.94
2023-04-18T17:51:29.758Z,99668.92
2023-04-18T17:54:01.197Z,99673.41
2023-04-18T17:56:32.768Z,99674.50
2023-04-18T17:59:03.617Z,99673.86
2023-04-18T18:01:35.680Z,99677.33
2023-04-18T18:04:07.255Z,99679.56
2023-04-18T18:06:38.828Z,99686.89
2023-04-18T18:09:10.607Z,99690.33
2023-04-18T18:11:41.619Z,99691.95
2023-04-18T18:14:12.789Z,99693.85
2023-04-18T18:16:44.996Z,99695.42
2023-04-18T18:19:16.657Z,99700.30
2023-04-18T18:21:48.425Z,99700.10
2023-04-18T18:24:20.022Z,99699.92
2023-04-18T18:26:51.762Z,99704.36
2023-04-18T18:29:23.246Z,99706.54
2023-04-18T18:31:54.391Z,99702.41
2023-04-18T18:34:27.261Z,99701.84
2023-04-18T18:36:58.238Z,99702.52
2023-04-18T18:39:29.372Z,99701.31
2023-04-18T18:42:00.440Z,99701.93
2023-04-18T18:44:31.715Z,99707.60
2023-04-18T18:47:02.959Z,99711.55
2023-04-18T18:49:34.215Z,99706.92
2023-04-18T18:52:05.645Z,99709.06
2023-04-18T18:54:36.948Z,99709.21
2023-04-18T18:57:08.787Z,99707.73
2023-04-18T18:59:39.931Z,99706.88
2023-04-18T19:02:11.689Z,99713.63
2023-04-18T19:04:42.969Z,99713.91
2023-04-18T19:07:14.357Z,99715.55
2023-04-18T19:09:46.557Z,99714.54
2023-04-18T19:12:17.892Z,99716.89
2023-04-18T19:14:50.935Z,99718.19
2023-04-18T19:17:24.980Z,99711.78
2023-04-18T19:19:58.503Z,99711.40
2023-04-18T19:22:29.862Z,99706.34
2023-04-18T19:25:01.297Z,99709.61
2023-04-18T19:27:32.359Z,99710.30
2023-04-18T19:30:04.468Z,99711.59
2023-04-18T19:32:36.082Z,99709.31
2023-04-18T19:35:09.930Z,99709.66
2023-04-18T19:37:39.054Z,99709.91
2023-04-18T19:40:11.952Z,99705.80
2023-04-18T19:42:42.868Z,99707.73
2023-04-18T19:45:15.264Z,99704.09
2023-04-18T19:47:47.876Z,99706.59
2023-04-18T19:50:18.819Z,99709.23
2023-04-18T19:52:49.603Z,99711.11
2023-04-18T19:55:21.778Z,99713.09
2023-04-18T19:57:57.848Z,99713.87
2023-04-18T20:00:29.600Z,99717.40
2023-04-18T20:03:01.164Z,99718.61
2023-04-18T20:05:32.656Z,99718.89
2023-04-18T20:08:03.558Z,99720.21
2023-04-18T20:10:36.732Z,99716.73
2023-04-18T20:13:08.195Z,99716.83
2023-04-18T20:15:39.141Z,99714.34
2023-04-18T20:18:10.092Z,99712.02
2023-04-18T20:20:41.426Z,99709.37
2023-04-18T20:23:14.437Z,99703.35
2023-04-18T20:25:45.480Z,99706.55
2023-04-18T20:28:16.310Z,99703.04
2023-04-18T20:30:48.128Z,99702.98
2023-04-18T20:33:19.233Z,99700.55
2023-04-18T20:35:49.912Z,99701.00
2023-04-18T20:38:25.816Z,99703.73
2023-04-18T20:40:58.142Z,99704.87
2023-04-18T20:43:29.439Z,99704.46
2023-04-18T20:46:01.099Z,99702.69
2023-04-18T20:48:32.048Z,99705.65
2023-04-18T20:51:02.880Z,99705.08
2023-04-18T20:53:33.628Z,99700.71
2023-04-18T20:56:05.286Z,99703.90
2023-04-18T20:58:36.322Z,99704.92
2023-04-18T21:01:07.228Z,99710.11
2023-04-18T21:03:38.257Z,99709.40
2023-04-18T21:06:09.266Z,99709.26
2023-04-18T21:08:40.540Z,99704.64
2023-04-18T21:11:11.588Z,99704.95
2023-04-18T21:13:42.287Z,99704.34
2023-04-18T21:16:13.485Z,99701.20
2023-04-18T21:18:44.687Z,99699.70
2023-04-18T21:21:15.343Z,99698.61
2023-04-18T21:23:46.931Z,99695.34
2023-04-18T21:26:17.705Z,99698.05
2023-04-18T21:29:04.146Z,99698.80
2023-04-18T21:31:36.673Z,99700.83
2023-04-18T21:34:09.390Z,99701.86
2023-04-18T21:36:40.740Z,99703.55
2023-04-18T21:39:12.186Z,99704.55
2023-04-18T21:41:42.878Z,99699.12
2023-04-18T21:44:13.900Z,99697.67
2023-04-18T21:46:45.318Z,99696.45
2023-04-18T21:49:16.117Z,99693.94
2023-04-18T21:51:46.899Z,99691.48
2023-04-18T21:54:17.844Z,99690.49
2023-04-18T21:56:48.576Z,99682.92
2023-04-18T21:59:19.321Z,99685.24
2023-04-18T22:01:50.732Z,99682.45
2023-04-18T22:04:26.007Z,99678.84
2023-04-18T22:06:57.687Z,99675.08
2023-04-18T22:09:29.545Z,99674.96
2023-04-18T22:12:00.388Z,99671.66
2023-04-18T22:14:32.081Z,99667.81
2023-04-18T22:17:04.980Z,99663.78
2023-04-18T22:19:36.287Z,99659.00
2023-04-18T22:22:06.965Z,99658.45
2023-04-18T22:24:37.659Z,99658.40
2023-04-18T22:27:08.588Z,99654.14
2023-04-18T22:29:39.330Z,99651.53
2023-04-18T22:32:10.112Z,99649.02
2023-04-18T22:34:40.908Z,99646.23
2023-04-18T22:37:11.814Z,99642.50
2023-04-18T22:39:42.557Z,99642.23
2023-04-18T22:42:13.250Z,99641.27
2023-04-18T22:44:44.050Z,99640.73
2023-04-18T22:47:14.802Z,99636.84
2023-04-18T22:49:46.150Z,99633.63
2023-04-18T22:52:17.225Z,99628.98
2023-04-18T22:54:47.931Z,99624.98
2023-04-18T22:57:19.628Z,99629.21
2023-04-18T22:59:50.848Z,99625.77
2023-04-18T23:02:21.604Z,99625.23
2023-04-18T23:04:53.408Z,99620.20
2023-04-18T23:07:24.304Z,99626.65
2023-04-18T23:09:55.233Z,99625.99
2023-04-18T23:12:26.846Z,99620.98
2023-04-18T23:14:57.635Z,99618.02
2023-04-18T23:17:28.483Z,99617.58
2023-04-18T23:19:59.364Z,99609.98
2023-04-18T23:22:30.942Z,99606.80
2023-04-18T23:25:01.822Z,99605.79
2023-04-18T23:27:32.969Z,99600.74
2023-04-18T23:30:03.799Z,99596.16
2023-04-18T23:32:34.681Z,99594.45
2023-04-18T23:35:06.088Z,99590.98
2023-04-18T23:37:37.136Z,99588.91
2023-04-18T23:40:09.776Z,99583.41
2023-04-18T23:42:40.461Z,99583.59
2023-04-18T23:45:12.701Z,99577.11
2023-04-18T23:47:43.560Z,99574.33
2023-04-18T23:50:15.541Z,99573.75
2023-04-18T23:52:46.376Z,99571.45
2023-04-18T23:55:18.049Z,99564.77
2023-04-18T23:57:49.262Z,99560.88
